Time;durP1;ratioP1;P1;durP2;ratioP2;P2;SDS_P1;SDS_P2;PMS_P1;PMS_P2;Temp;Humidity;BMP_temperature;BMP_pressure;BME280_temperature;BME280_humidity;BME280_pressure;Samples;Min_cycle;Max_cycle;Signal;HPM_P1;HPM_P2
2021/07/27 00:01:15;;;;;;;7.17;5.10;;;;;;;20.28;82.79;99124.22;5113436;28;20428;-77
2021/07/27 00:03:42;;;;;;;8.03;6.53;;;;;;;20.38;82.13;99133.19;5113776;28;20506;-78
2021/07/27 00:06:10;;;;;;;6.70;5.63;;;;;;;20.46;80.63;99129.63;5113465;28;20433;-77
2021/07/27 00:08:38;;;;;;;5.83;5.30;;;;;;;20.51;78.92;99122.66;5113338;28;20447;-76
2021/07/27 00:11:06;;;;;;;10.13;5.80;;;;;;;20.58;79.28;99129.19;5114014;28;20443;-77
2021/07/27 00:13:34;;;;;;;5.90;5.30;;;;;;;20.74;78.45;99131.13;5112979;28;20566;-78
2021/07/27 00:16:01;;;;;;;7.60;4.83;;;;;;;20.77;77.09;99138.16;5114013;28;20432;-77
2021/07/27 00:18:28;;;;;;;8.57;6.57;;;;;;;20.79;76.44;99133.38;5114124;28;21263;-77
2021/07/27 00:20:54;;;;;;;6.90;6.00;;;;;;;20.67;77.13;99131.94;5114055;28;20425;-78
2021/07/27 00:23:21;;;;;;;6.13;5.53;;;;;;;20.72;76.95;99135.06;5113744;28;20911;-78
2021/07/27 00:25:48;;;;;;;6.30;5.70;;;;;;;20.76;76.30;99139.19;5113308;28;20482;-78
2021/07/27 00:28:15;;;;;;;6.93;5.60;;;;;;;20.77;76.63;99129.94;5113303;28;20487;-77
2021/07/27 00:30:43;;;;;;;5.73;5.10;;;;;;;20.75;76.54;99137.47;5102758;28;20444;-77
2021/07/27 00:33:10;;;;;;;5.63;5.03;;;;;;;20.78;76.33;99131.66;5113450;28;20571;-77
2021/07/27 00:35:37;;;;;;;8.80;6.30;;;;;;;20.83;76.03;99138.34;5113739;28;21334;-77
2021/07/27 00:38:09;;;;;;;5.93;5.17;;;;;;;20.83;75.61;99148.44;5092877;28;20448;-76
2021/07/27 00:40:36;;;;;;;6.20;5.60;;;;;;;20.94;75.28;99139.03;5109027;28;20444;-77
2021/07/27 00:43:05;;;;;;;7.13;5.80;;;;;;;20.83;75.63;99140.25;5113131;28;20906;-77
2021/07/27 00:45:32;;;;;;;6.50;5.87;;;;;;;20.60;77.67;99138.09;5113228;28;20911;-77
2021/07/27 00:48:00;;;;;;;9.80;5.87;;;;;;;20.36;80.81;99148.88;5113027;28;20504;-78
2021/07/27 00:50:28;;;;;;;6.30;5.10;;;;;;;20.37;81.20;99153.31;5112984;28;20864;-77
2021/07/27 00:52:57;;;;;;;7.40;5.33;;;;;;;20.15;82.58;99152.03;5113070;28;20476;-77
2021/07/27 00:55:24;;;;;;;5.97;5.00;;;;;;;20.05;83.53;99154.84;5113222;28;20417;-77
2021/07/27 00:57:51;;;;;;;6.67;5.30;;;;;;;19.84;85.34;99157.09;5112736;28;20428;-77
2021/07/27 01:00:18;;;;;;;7.43;5.70;;;;;;;19.92;85.79;99158.03;5112677;28;20448;-78
2021/07/27 01:02:44;;;;;;;6.73;5.33;;;;;;;19.96;85.22;99147.63;5112714;28;20436;-76
2021/07/27 01:05:13;;;;;;;6.13;5.30;;;;;;;19.98;84.98;99140.97;5112182;28;20471;-76
2021/07/27 01:07:40;;;;;;;6.47;5.63;;;;;;;20.27;83.19;99147.13;5112838;28;20536;-77
2021/07/27 01:10:07;;;;;;;6.03;5.37;;;;;;;20.06;84.85;99150.22;5112462;28;20424;-77
2021/07/27 01:12:34;;;;;;;6.63;5.43;;;;;;;20.08;84.82;99149.06;5112572;28;20526;-77
2021/07/27 01:15:01;;;;;;;6.37;5.50;;;;;;;20.21;84.22;99154.09;5112825;28;20435;-76
2021/07/27 01:17:27;;;;;;;6.50;5.73;;;;;;;20.27;82.82;99149.88;5111743;28;20443;-77
2021/07/27 01:19:58;;;;;;;7.10;5.23;;;;;;;19.96;84.86;99153.06;5112829;28;20429;-77
2021/07/27 01:44:21;;;;;;;8.55;6.25;;;;;;;19.92;85.49;99129.81;5091950;28;20317;-77
2021/07/27 01:46:57;;;;;;;7.63;5.80;;;;;;;20.00;84.78;99132.63;5091812;28;20199;-78
2021/07/27 01:49:24;;;;;;;7.47;6.20;;;;;;;20.16;84.04;99131.84;5092228;28;20425;-77
2021/07/27 01:51:53;;;;;;;8.70;5.50;;;;;;;20.34;82.75;99135.38;5091544;28;20446;-77
2021/07/27 01:54:28;;;;;;;6.80;5.37;;;;;;;20.48;81.66;99133.91;5092099;28;20418;-77
2021/07/27 01:56:56;;;;;;;6.53;5.53;;;;;;;20.67;79.77;99131.94;5109153;28;20525;-77
2021/07/27 01:59:22;;;;;;;7.30;5.70;;;;;;;20.68;79.57;99141.88;5112026;28;20955;-77
2021/07/27 02:01:49;;;;;;;9.48;5.70;;;;;;;20.53;80.83;99131.56;5111716;28;20438;-77
2021/07/27 02:04:15;;;;;;;6.33;5.57;;;;;;;20.46;81.40;99135.09;5111989;28;20559;-78
2021/07/27 02:06:42;;;;;;;6.30;5.70;;;;;;;20.45;81.38;99126.03;5112099;28;20520;-78
2021/07/27 02:09:09;;;;;;;6.83;5.90;;;;;;;20.36;81.75;99124.28;5112301;28;20537;-77
2021/07/27 02:11:42;;;;;;;7.97;6.00;;;;;;;20.33;81.67;99121.88;5112383;28;20470;-77
2021/07/27 02:14:12;;;;;;;7.37;5.90;;;;;;;20.34;81.51;99118.13;5112174;28;20803;-77
2021/07/27 02:16:39;;;;;;;6.53;5.83;;;;;;;20.19;82.50;99118.75;5111926;28;20464;-78
2021/07/27 02:19:06;;;;;;;13.33;7.20;;;;;;;20.04;83.84;99117.63;5112175;28;20432;-77
2021/07/27 02:21:33;;;;;;;6.37;5.77;;;;;;;20.13;83.35;99113.91;5112296;28;20430;-77
2021/07/27 02:24:01;;;;;;;6.73;5.80;;;;;;;20.12;83.45;99120.38;5112184;28;20448;-79
2021/07/27 02:26:28;;;;;;;7.70;6.40;;;;;;;20.00;83.88;99118.97;5111819;28;20981;-77
2021/07/27 02:28:56;;;;;;;6.73;5.60;;;;;;;20.07;83.84;99121.91;5113621;28;20505;-76
2021/07/27 02:31:28;;;;;;;9.05;5.80;;;;;;;19.96;84.27;99123.88;5115378;28;20532;-76
2021/07/27 02:33:54;;;;;;;5.72;5.20;;;;;;;19.99;84.34;99136.38;5115870;28;20219;-77
2021/07/27 02:36:21;;;;;;;7.35;5.75;;;;;;;20.19;83.08;99132.41;5115154;28;20269;-77
2021/07/27 02:38:48;;;;;;;7.30;5.55;;;;;;;20.17;82.97;99137.19;5115452;28;20187;-77
2021/07/27 02:41:15;;;;;;;8.43;5.82;;;;;;;20.05;83.85;99132.13;5115549;28;20199;-77
2021/07/27 02:43:42;;;;;;;6.83;6.07;;;;;;;19.95;84.42;99140.44;5115499;28;20274;-76
2021/07/27 02:46:10;;;;;;;9.13;6.05;;;;;;;19.93;84.52;99126.94;5115151;28;20421;-77
2021/07/27 02:48:37;;;;;;;6.77;5.93;;;;;;;19.68;86.25;99125.88;5115488;28;20309;-77
2021/07/27 02:51:07;;;;;;;7.68;6.85;;;;;;;19.78;86.12;99123.91;5115099;28;20448;-77
2021/07/27 02:53:34;;;;;;;9.97;6.17;;;;;;;19.83;85.84;99128.06;5115262;28;20671;-76
2021/07/27 02:56:00;;;;;;;7.47;6.57;;;;;;;19.72;86.25;99126.47;5115510;28;20424;-77
2021/07/27 02:58:31;;;;;;;8.80;6.27;;;;;;;19.45;88.23;99128.25;5115450;28;20732;-77
2021/07/27 03:00:58;;;;;;;8.70;5.85;;;;;;;19.38;89.03;99122.56;5114998;28;20493;-78
2021/07/27 03:03:26;;;;;;;9.10;6.57;;;;;;;19.24;89.74;99123.09;5114641;28;20255;-76
2021/07/27 03:05:58;;;;;;;8.75;6.38;;;;;;;19.26;90.73;99121.06;5114590;28;20448;-77
2021/07/27 03:08:34;;;;;;;7.47;6.13;;;;;;;19.27;90.21;99122.81;5115160;28;20190;-76
2021/07/27 03:11:01;;;;;;;8.50;7.25;;;;;;;19.31;90.44;99121.47;5115218;28;20990;-77
2021/07/27 03:13:28;;;;;;;8.07;6.90;;;;;;;19.44;89.22;99121.06;5114784;28;20996;-76
2021/07/27 03:15:55;;;;;;;7.47;6.60;;;;;;;19.49;88.76;99134.25;5115314;28;20241;-77
2021/07/27 03:18:21;;;;;;;7.30;6.50;;;;;;;19.42;89.38;99128.53;5114834;28;20195;-77
2021/07/27 03:20:49;;;;;;;8.40;6.55;;;;;;;19.44;89.55;99131.13;5114653;28;20278;-77
2021/07/27 03:23:18;;;;;;;7.55;6.85;;;;;;;19.30;89.65;99122.47;5115076;28;20245;-76
2021/07/27 03:25:44;;;;;;;10.20;7.22;;;;;;;19.30;90.37;99121.63;5114040;28;20201;-77
2021/07/27 03:28:11;;;;;;;8.13;7.20;;;;;;;19.30;90.10;99124.34;5114684;28;20212;-77
2021/07/27 03:30:38;;;;;;;9.23;6.57;;;;;;;19.28;90.40;99116.31;5094611;28;20195;-78
2021/07/27 03:33:04;;;;;;;7.45;6.75;;;;;;;19.26;90.63;99126.53;5103368;28;20325;-77
2021/07/27 03:35:31;;;;;;;8.97;7.37;;;;;;;19.28;90.64;99124.50;5114876;28;20226;-77
2021/07/27 03:37:59;;;;;;;8.15;6.65;;;;;;;19.27;90.59;99139.19;5114309;28;20605;-76
2021/07/27 03:40:25;;;;;;;8.90;6.82;;;;;;;19.17;91.72;99125.63;5113544;28;20241;-77
2021/07/27 03:42:52;;;;;;;9.55;7.20;;;;;;;19.12;91.95;99119.75;5114656;28;21024;-77
2021/07/27 03:45:19;;;;;;;12.10;8.02;;;;;;;19.09;92.50;99111.03;5114608;28;20190;-76
2021/07/27 03:47:45;;;;;;;7.63;6.70;;;;;;;19.15;92.02;99115.84;5114037;28;20237;-77
2021/07/27 03:50:12;;;;;;;8.82;7.10;;;;;;;19.13;91.74;99112.41;5113587;28;20183;-76
2021/07/27 03:52:39;;;;;;;11.13;8.45;;;;;;;19.16;91.59;99112.97;5114231;28;20226;-77
2021/07/27 03:55:08;;;;;;;9.35;6.65;;;;;;;19.13;91.71;99101.50;5114182;28;20277;-76
2021/07/27 03:57:34;;;;;;;8.68;6.93;;;;;;;19.18;91.15;99096.44;5113958;28;20209;-76
2021/07/27 04:00:01;;;;;;;12.30;9.20;;;;;;;19.15;91.88;99100.34;5113937;28;20881;-76
2021/07/27 04:02:28;;;;;;;7.72;6.72;;;;;;;19.22;91.25;99100.59;5113609;28;20191;-76
2021/07/27 04:04:54;;;;;;;9.52;7.90;;;;;;;19.26;91.20;99099.25;5113686;28;20344;-76
2021/07/27 04:07:21;;;;;;;9.48;7.30;;;;;;;19.17;91.46;99105.63;5113950;28;20197;-75
2021/07/27 04:09:48;;;;;;;10.93;8.02;;;;;;;19.17;91.33;99102.91;5114020;28;20277;-77
2021/07/27 04:12:16;;;;;;;8.52;6.60;;;;;;;19.27;90.70;99100.97;5113386;28;20286;-77
2021/07/27 04:14:42;;;;;;;12.88;9.00;;;;;;;19.29;90.59;99093.47;5113933;28;20215;-76
2021/07/27 04:17:09;;;;;;;10.20;8.13;;;;;;;19.31;90.16;99093.31;5113789;28;20187;-77
2021/07/27 04:19:35;;;;;;;7.60;6.78;;;;;;;19.22;90.90;99094.25;5113346;28;20203;-76
2021/07/27 04:22:02;;;;;;;10.70;7.40;;;;;;;19.14;91.51;99098.63;5113697;28;20522;-76
2021/07/27 04:24:29;;;;;;;8.65;6.88;;;;;;;19.38;89.88;99098.00;5113269;28;20194;-77
2021/07/27 04:26:56;;;;;;;11.15;7.68;;;;;;;19.33;89.46;99096.75;5113217;28;20729;-77
2021/07/27 04:29:24;;;;;;;9.70;7.88;;;;;;;19.33;90.01;99089.44;5122191;27;20186;-77
2021/07/27 04:31:50;;;;;;;9.25;7.38;;;;;;;19.45;88.99;99091.91;5133658;27;20232;-76
2021/07/27 04:34:17;;;;;;;9.38;7.30;;;;;;;19.46;88.81;99101.81;5132626;27;20574;-76
2021/07/27 04:36:44;;;;;;;10.25;8.52;;;;;;;19.46;89.15;99096.34;5133503;27;20194;-76
2021/07/27 04:39:11;;;;;;;8.63;7.75;;;;;;;19.45;88.12;99102.84;5133885;27;20200;-77
2021/07/27 04:41:38;;;;;;;8.68;7.72;;;;;;;19.49;87.99;99099.63;5133689;27;20582;-77
2021/07/27 04:44:05;;;;;;;10.07;6.70;;;;;;;19.58;87.45;99100.53;5133865;27;20198;-77
2021/07/27 04:46:34;;;;;;;9.38;7.63;;;;;;;19.48;87.58;99091.59;5120648;27;20219;-76
2021/07/27 04:49:00;;;;;;;9.88;8.25;;;;;;;19.66;87.00;99095.13;5113263;28;20677;-77
2021/07/27 04:51:27;;;;;;;8.25;7.38;;;;;;;19.73;86.56;99092.66;5112836;28;20281;-75
2021/07/27 04:53:58;;;;;;;9.80;8.10;;;;;;;19.92;85.05;99094.31;5113108;28;20214;-77
2021/07/27 04:56:25;;;;;;;13.63;7.93;;;;;;;19.89;85.38;99089.16;5113710;28;20883;-78
2021/07/27 04:58:52;;;;;;;8.75;7.85;;;;;;;20.01;84.56;99087.88;5116720;28;20454;-77
2021/07/27 05:01:18;;;;;;;10.70;8.77;;;;;;;20.03;84.42;99087.72;5113230;28;20647;-77
2021/07/27 05:03:46;;;;;;;10.27;7.85;;;;;;;20.06;83.72;99092.84;5112638;28;20486;-78
2021/07/27 05:06:13;;;;;;;17.88;9.50;;;;;;;20.01;84.21;99087.88;5112408;28;20283;-78
2021/07/27 05:08:42;;;;;;;14.82;8.82;;;;;;;19.90;84.91;99094.47;5112796;28;20276;-78
2021/07/27 05:11:09;;;;;;;11.52;8.88;;;;;;;20.04;83.95;99093.03;5112467;28;20285;-78
2021/07/27 05:13:36;;;;;;;11.20;8.85;;;;;;;20.09;83.64;99092.53;5112894;28;20215;-77
2021/07/27 05:16:05;;;;;;;9.68;8.70;;;;;;;20.17;82.93;99087.09;5112596;28;20202;-77
2021/07/27 05:18:31;;;;;;;10.53;8.10;;;;;;;20.02;83.85;99092.31;5113107;28;20191;-77
2021/07/27 05:20:59;;;;;;;10.00;8.85;;;;;;;19.98;84.37;99080.00;5113090;28;20444;-76
2021/07/27 05:23:26;;;;;;;11.40;8.40;;;;;;;19.91;85.12;99089.88;5112206;28;20286;-77
2021/07/27 05:25:53;;;;;;;10.75;8.13;;;;;;;20.02;84.79;99099.69;5113752;28;20954;-77
2021/07/27 05:28:19;;;;;;;12.00;8.70;;;;;;;20.02;84.50;99100.53;5113771;28;20282;-78
2021/07/27 05:30:46;;;;;;;9.20;7.87;;;;;;;20.07;84.24;99106.34;5115126;28;20522;-77
2021/07/27 05:33:12;;;;;;;11.20;7.60;;;;;;;20.20;83.31;99103.19;5111584;28;20472;-75
2021/07/27 05:35:39;;;;;;;11.10;8.15;;;;;;;20.23;82.67;99102.84;5112613;28;20429;-76
2021/07/27 05:38:07;;;;;;;10.13;7.10;;;;;;;20.24;83.00;99103.69;5112297;28;20654;-76
2021/07/27 05:40:34;;;;;;;8.30;7.50;;;;;;;20.42;81.97;99107.22;5111982;28;20429;-77
2021/07/27 05:43:01;;;;;;;11.93;7.50;;;;;;;20.54;81.03;99105.91;5112243;28;20446;-78
2021/07/27 05:45:28;;;;;;;13.73;8.50;;;;;;;20.51;81.11;99108.09;5112019;28;20414;-77
2021/07/27 05:47:54;;;;;;;9.27;7.40;;;;;;;20.52;80.74;99109.81;5111760;28;20437;-77
2021/07/27 05:50:21;;;;;;;12.10;7.93;;;;;;;20.49;81.09;99112.91;5112390;28;20425;-75
2021/07/27 05:52:48;;;;;;;10.83;9.47;;;;;;;20.36;81.46;99110.63;5112995;28;20445;-76
2021/07/27 05:55:17;;;;;;;9.30;7.97;;;;;;;20.33;82.18;99105.47;5112245;28;20556;-76
2021/07/27 05:57:43;;;;;;;9.00;8.03;;;;;;;20.37;81.70;99098.63;5112143;28;20528;-76
2021/07/27 06:00:10;;;;;;;9.80;7.60;;;;;;;20.34;81.92;99099.84;5112376;28;20424;-77
2021/07/27 06:02:37;;;;;;;8.83;8.00;;;;;;;20.29;81.69;99091.28;5112551;28;20440;-77
2021/07/27 06:05:05;;;;;;;12.80;7.77;;;;;;;20.20;82.07;99095.84;5116224;28;20468;-76
2021/07/27 06:07:32;;;;;;;9.30;7.20;;;;;;;20.38;81.71;99094.91;5117087;28;20436;-76
2021/07/27 06:09:58;;;;;;;8.60;7.70;;;;;;;20.54;80.11;99108.63;5116562;28;20432;-76
2021/07/27 06:12:26;;;;;;;12.70;8.33;;;;;;;20.70;79.82;99104.28;5116068;28;20441;-76
2021/07/27 06:14:53;;;;;;;16.73;9.00;;;;;;;20.87;78.81;99097.84;5117187;28;20966;-76
2021/07/27 06:17:19;;;;;;;9.97;8.73;;;;;;;20.97;77.70;99103.16;5117440;28;20441;-76
2021/07/27 06:19:46;;;;;;;8.37;7.10;;;;;;;21.14;76.90;99118.59;5118474;28;20449;-77
2021/07/27 06:22:12;;;;;;;8.83;7.93;;;;;;;21.22;76.45;99118.59;5117541;28;20472;-77
2021/07/27 06:24:39;;;;;;;9.60;8.17;;;;;;;21.39;75.74;99107.63;5116441;28;20452;-77
2021/07/27 06:27:06;;;;;;;9.73;7.77;;;;;;;21.39;75.53;99102.16;5118531;28;20441;-78
2021/07/27 06:29:34;;;;;;;11.30;7.40;;;;;;;21.33;75.04;99111.94;5115833;28;20425;-76
2021/07/27 06:32:00;;;;;;;11.73;8.40;;;;;;;21.36;75.21;99106.09;5117516;28;20982;-77
2021/07/27 06:34:27;;;;;;;10.40;8.43;;;;;;;21.40;75.12;99110.25;5117926;28;20466;-77
2021/07/27 06:36:53;;;;;;;10.70;7.80;;;;;;;21.54;74.73;99113.34;5116474;28;20441;-77
2021/07/27 06:39:20;;;;;;;9.33;8.27;;;;;;;21.81;73.00;99107.50;5117881;28;20429;-77
2021/07/27 06:41:47;;;;;;;7.27;6.57;;;;;;;21.99;72.15;99107.28;5117427;28;20476;-77
2021/07/27 06:44:13;;;;;;;7.83;6.73;;;;;;;21.92;72.35;99108.16;5115673;28;20425;-77
2021/07/27 06:46:41;;;;;;;8.80;7.63;;;;;;;22.04;72.05;99106.75;5115450;28;20758;-77
2021/07/27 06:49:08;;;;;;;8.37;7.47;;;;;;;22.17;71.58;99106.22;5115621;28;20425;-78
2021/07/27 06:51:34;;;;;;;11.80;8.70;;;;;;;22.01;71.92;99115.34;5115113;28;20452;-77
2021/07/27 06:54:01;;;;;;;8.67;7.77;;;;;;;21.94;72.30;99115.19;5115033;28;20471;-78
2021/07/27 06:56:27;;;;;;;8.57;7.70;;;;;;;21.84;72.61;99118.13;5115459;28;20457;-77
2021/07/27 06:58:54;;;;;;;8.50;7.60;;;;;;;21.92;72.42;99125.47;5114695;28;20414;-75
2021/07/27 07:01:21;;;;;;;12.50;9.50;;;;;;;22.13;71.58;99133.13;5118284;28;20436;-76
2021/07/27 07:03:48;;;;;;;8.10;7.30;;;;;;;22.27;70.80;99146.16;5116935;28;20477;-77
2021/07/27 07:06:16;;;;;;;8.80;7.47;;;;;;;22.31;71.21;99143.06;5116590;28;20524;-78
2021/07/27 07:08:43;;;;;;;8.70;7.17;;;;;;;22.38;70.48;99142.16;5114887;28;20453;-77
2021/07/27 07:11:10;;;;;;;8.03;7.23;;;;;;;22.55;69.82;99136.66;5114507;28;20443;-77
2021/07/27 07:13:37;;;;;;;8.63;7.17;;;;;;;22.64;69.63;99133.69;5114862;28;20767;-77
2021/07/27 07:16:08;;;;;;;8.10;7.30;;;;;;;22.68;69.40;99121.31;5113269;28;20463;-78
2021/07/27 07:18:34;;;;;;;9.37;7.80;;;;;;;22.74;69.00;99132.63;5115738;28;20934;-78
2021/07/27 07:21:07;;;;;;;8.03;7.23;;;;;;;22.49;70.15;99132.72;5115516;28;20445;-77
2021/07/27 07:23:33;;;;;;;8.90;8.10;;;;;;;22.67;69.39;99127.81;5114672;28;20868;-79
2021/07/27 07:26:03;;;;;;;8.07;6.40;;;;;;;22.77;69.10;99118.53;5114014;28;20437;-77
2021/07/27 07:28:30;;;;;;;8.03;7.00;;;;;;;22.77;68.67;99124.88;5114034;28;20428;-77
2021/07/27 07:30:57;;;;;;;13.23;10.37;;;;;;;22.87;68.61;99117.28;5115140;28;20513;-77
2021/07/27 07:33:23;;;;;;;9.90;7.73;;;;;;;22.86;68.17;99126.56;5114538;28;20445;-77
2021/07/27 07:35:50;;;;;;;10.70;8.50;;;;;;;22.69;69.56;99133.16;5114549;28;20456;-78
2021/07/27 07:38:17;;;;;;;18.03;8.07;;;;;;;;;;5115478;28;20477;-77
2021/07/27 07:40:44;;;;;;;8.50;7.03;;;;;;;22.80;68.75;99146.47;5115758;28;20447;-77
2021/07/27 07:43:11;;;;;;;10.00;7.50;;;;;;;22.99;68.06;99142.44;5116333;28;20851;-77
2021/07/27 07:45:38;;;;;;;7.93;7.13;;;;;;;23.13;67.43;99142.72;5114610;28;20919;-77
2021/07/27 07:48:05;;;;;;;12.10;10.10;;;;;;;23.33;66.29;99149.44;5115408;28;20428;-78
2021/07/27 07:50:32;;;;;;;10.17;9.10;;;;;;;23.37;66.28;99148.06;5115024;28;20457;-76
2021/07/27 07:52:59;;;;;;;9.77;8.60;;;;;;;23.36;66.15;99132.63;5114258;28;20475;-75
2021/07/27 07:55:28;;;;;;;8.20;7.40;;;;;;;23.48;65.42;99131.16;5113736;28;21065;-77
2021/07/27 07:57:55;;;;;;;9.10;7.40;;;;;;;23.45;65.70;99122.41;5113740;28;20958;-77
2021/07/27 08:00:23;;;;;;;9.83;7.70;;;;;;;23.67;65.56;99124.28;5114678;28;20433;-78
2021/07/27 08:02:50;;;;;;;9.90;7.77;;;;;;;23.99;63.98;99118.69;5113989;28;20909;-75
2021/07/27 08:05:17;;;;;;;7.47;6.73;;;;;;;24.09;63.69;99119.31;5112909;28;20464;-77
2021/07/27 08:07:43;;;;;;;8.83;7.60;;;;;;;24.29;62.86;99120.44;5119926;28;20424;-77
2021/07/27 08:10:12;;;;;;;11.00;9.90;;;;;;;24.14;63.26;99123.19;5119643;28;20451;-77
2021/07/27 08:12:40;;;;;;;8.17;7.17;;;;;;;23.96;63.52;99122.69;5115222;28;20448;-78
2021/07/27 08:15:08;;;;;;;7.87;7.07;;;;;;;23.85;64.10;99125.88;5113758;28;20996;-76
2021/07/27 08:17:34;;;;;;;7.30;6.30;;;;;;;24.02;63.70;99134.84;5113460;28;20432;-77
2021/07/27 08:20:02;;;;;;;9.53;7.60;;;;;;;23.90;63.63;99143.53;5113912;28;20941;-78
2021/07/27 08:22:28;;;;;;;8.53;7.60;;;;;;;24.15;62.41;99148.81;5115032;28;20434;-77
2021/07/27 08:24:56;;;;;;;12.03;8.90;;;;;;;24.31;61.99;99145.88;5115223;28;20448;-77
2021/07/27 08:27:25;;;;;;;9.47;8.57;;;;;;;24.43;61.58;99153.66;5113751;28;20789;-77
2021/07/27 08:29:53;;;;;;;9.20;7.30;;;;;;;24.48;61.47;99146.56;5114593;28;21230;-76
2021/07/27 08:32:20;;;;;;;9.70;7.07;;;;;;;24.50;61.45;99149.13;5116176;28;20534;-77
2021/07/27 08:34:46;;;;;;;9.07;8.17;;;;;;;24.44;61.30;99145.19;5113565;28;20588;-77
2021/07/27 08:37:13;;;;;;;15.00;7.27;;;;;;;24.73;60.53;99138.84;5113677;28;21249;-77
2021/07/27 08:39:40;;;;;;;11.57;9.53;;;;;;;24.81;60.24;99135.16;5113357;28;20415;-78
2021/07/27 08:42:07;;;;;;;9.33;8.43;;;;;;;25.08;59.50;99128.06;5113712;28;21342;-76
2021/07/27 08:44:35;;;;;;;9.17;7.50;;;;;;;25.30;59.04;99133.63;5113272;28;20532;-77
2021/07/27 08:47:05;;;;;;;8.27;7.47;;;;;;;25.41;58.86;99135.03;5112550;28;20933;-79
2021/07/27 08:49:32;;;;;;;9.70;7.83;;;;;;;25.61;58.03;99136.06;5112684;28;20443;-78
2021/07/27 08:51:59;;;;;;;8.37;7.10;;;;;;;25.66;58.04;99136.31;5092584;28;20454;-78
2021/07/27 08:54:26;;;;;;;8.30;7.50;;;;;;;25.73;57.64;99139.13;5113552;28;20483;-77
2021/07/27 08:56:54;;;;;;;9.83;7.93;;;;;;;25.31;59.23;99146.38;5113463;28;20426;-77
2021/07/27 08:59:22;;;;;;;10.40;8.10;;;;;;;25.06;60.27;99137.59;5113484;28;20425;-77
2021/07/27 09:01:52;;;;;;;9.67;7.83;;;;;;;25.24;59.86;99140.78;5114047;28;20440;-77
2021/07/27 09:04:27;;;;;;;11.90;8.93;;;;;;;25.36;59.56;99143.88;5113341;28;20475;-77
2021/07/27 09:06:58;;;;;;;9.97;8.97;;;;;;;25.28;60.09;99132.97;5117127;28;20437;-77
2021/07/27 09:09:30;;;;;;;9.97;8.60;;;;;;;25.18;60.28;99145.16;5104545;27;20440;-76
2021/07/27 09:11:59;;;;;;;9.73;8.73;;;;;;;25.33;59.90;99144.28;5119881;27;20425;-77
2021/07/27 09:14:26;;;;;;;9.47;7.93;;;;;;;25.56;58.82;99144.09;5112232;28;20548;-78
2021/07/27 09:16:55;;;;;;;8.47;7.70;;;;;;;25.84;58.01;99146.03;5126730;27;20435;-77
2021/07/27 09:19:24;;;;;;;8.80;7.90;;;;;;;25.79;58.02;99152.97;5132959;27;20428;-77
2021/07/27 09:21:51;;;;;;;8.60;7.70;;;;;;;25.63;58.22;99155.16;5132787;27;20420;-76
2021/07/27 09:24:25;;;;;;;9.03;8.13;;;;;;;25.70;57.83;99150.56;5123008;27;20445;-78
2021/07/27 09:26:56;;;;;;;8.07;7.37;;;;;;;25.82;57.59;99161.91;5112572;28;20469;-77
2021/07/27 09:29:27;;;;;;;9.40;7.50;;;;;;;25.50;58.33;99164.16;5111771;28;20493;-77
2021/07/27 09:31:55;;;;;;;10.63;8.23;;;;;;;25.47;58.97;99159.03;5111992;28;20512;-76
2021/07/27 09:34:25;;;;;;;14.07;8.60;;;;;;;25.49;58.89;99166.06;5112196;28;20827;-77
2021/07/27 09:37:03;;;;;;;11.30;10.30;;;;;;;25.18;59.19;99164.44;5112643;28;20425;-77
2021/07/27 09:39:29;;;;;;;9.37;8.43;;;;;;;25.00;60.32;99157.63;5111659;28;20878;-78
2021/07/27 09:42:00;;;;;;;12.77;8.00;;;;;;;25.05;60.65;99158.75;5111661;28;20457;-77
2021/07/27 09:44:29;;;;;;;11.73;8.63;;;;;;;25.11;60.24;99152.47;5111676;28;20433;-79
2021/07/27 09:46:57;;;;;;;9.33;8.40;;;;;;;25.26;59.44;99148.84;5111520;28;20482;-78
2021/07/27 09:49:26;;;;;;;10.90;8.70;;;;;;;25.38;59.49;99158.31;5111947;28;20468;-78
2021/07/27 09:51:53;;;;;;;9.87;8.47;;;;;;;25.35;59.01;99159.56;5111866;28;20455;-77
2021/07/27 09:54:23;;;;;;;12.67;8.70;;;;;;;25.72;57.97;99152.06;5111884;28;20538;-77
2021/07/27 09:56:50;;;;;;;10.33;8.40;;;;;;;25.74;57.59;99155.50;5111853;28;20441;-77
2021/07/27 09:59:18;;;;;;;8.80;7.90;;;;;;;25.96;57.40;99155.47;5111930;28;20911;-77
2021/07/27 10:01:52;;;;;;;9.23;8.30;;;;;;;26.21;56.21;99156.75;5111395;28;20455;-76
2021/07/27 10:04:25;;;;;;;12.37;8.40;;;;;;;26.13;56.35;99151.38;5112714;28;20569;-76
2021/07/27 10:06:53;;;;;;;9.73;8.00;;;;;;;25.53;58.50;99150.84;5112927;28;20508;-77
2021/07/27 10:09:26;;;;;;;9.37;8.50;;;;;;;25.65;58.00;99151.16;5116782;28;20425;-76
2021/07/27 10:11:53;;;;;;;9.43;8.53;;;;;;;25.59;57.96;99147.28;5111909;28;20421;-77
2021/07/27 10:14:21;;;;;;;10.60;8.87;;;;;;;25.45;58.31;99139.94;5112077;28;20443;-76
2021/07/27 10:16:48;;;;;;;11.47;9.07;;;;;;;25.74;57.07;99147.22;5111677;28;20429;-77
2021/07/27 10:19:18;;;;;;;8.80;7.80;;;;;;;25.93;56.01;99156.72;5113649;28;20790;-76
2021/07/27 10:21:47;;;;;;;13.60;8.27;;;;;;;26.13;55.60;99150.53;5114024;28;20441;-76
2021/07/27 10:24:17;;;;;;;9.60;8.60;;;;;;;26.41;54.74;99148.63;5112039;28;20448;-77
2021/07/27 10:26:44;;;;;;;8.93;8.03;;;;;;;26.42;54.56;99147.56;5112305;28;20427;-76
2021/07/27 10:29:12;;;;;;;8.63;7.67;;;;;;;26.63;54.22;99145.78;5114749;28;20797;-77
2021/07/27 10:31:40;;;;;;;8.33;7.63;;;;;;;26.63;53.96;99134.75;5112190;28;20439;-78
2021/07/27 10:34:07;;;;;;;8.50;7.70;;;;;;;26.66;53.94;99139.88;5112631;28;20421;-78
2021/07/27 10:36:35;;;;;;;8.70;7.90;;;;;;;26.52;53.77;99143.56;5113153;28;20483;-76
2021/07/27 10:39:08;;;;;;;10.50;7.83;;;;;;;26.52;54.28;99149.09;5115183;28;20452;-76
2021/07/27 10:41:36;;;;;;;9.00;7.97;;;;;;;26.43;54.62;99140.13;5115713;28;20472;-77
2021/07/27 10:44:08;;;;;;;9.80;8.90;;;;;;;26.38;54.94;99149.00;5111791;28;20422;-76
2021/07/27 10:46:40;;;;;;;9.40;8.50;;;;;;;26.58;53.93;99146.41;5113030;28;20922;-76
2021/07/27 10:49:15;;;;;;;9.60;8.43;;;;;;;26.57;53.39;99146.59;5114931;28;20782;-77
2021/07/27 10:51:45;;;;;;;10.37;9.33;;;;;;;26.92;52.54;99139.13;5117473;28;20520;-76
2021/07/27 10:54:14;;;;;;;8.43;7.53;;;;;;;27.21;51.86;99124.19;5114561;28;20448;-76
2021/07/27 10:56:47;;;;;;;11.37;8.50;;;;;;;27.48;50.82;99124.25;5117174;28;20480;-76
2021/07/27 10:59:19;;;;;;;9.83;8.93;;;;;;;27.61;50.59;99126.16;5122091;28;20472;-78
2021/07/27 11:01:46;;;;;;;8.77;7.63;;;;;;;27.73;50.38;99123.63;5117241;28;20463;-75
2021/07/27 11:04:15;;;;;;;9.40;8.50;;;;;;;27.81;49.46;99129.81;5116986;28;21329;-77
2021/07/27 11:06:41;;;;;;;9.57;8.77;;;;;;;27.84;50.03;99120.25;5116227;28;20478;-76
2021/07/27 11:09:11;;;;;;;11.80;8.20;;;;;;;27.80;49.73;99113.41;5115375;28;20435;-76
2021/07/27 11:11:46;;;;;;;9.07;8.17;;;;;;;27.78;49.87;99110.00;5115227;28;20445;-76
2021/07/27 11:14:23;;;;;;;10.50;9.03;;;;;;;27.98;49.43;99101.75;5117117;28;20433;-79
2021/07/27 11:16:50;;;;;;;12.90;9.13;;;;;;;27.79;49.95;99100.63;5114662;28;20504;-76
2021/07/27 11:19:27;;;;;;;9.60;8.73;;;;;;;27.62;50.27;99091.94;5116740;28;20524;-76
2021/07/27 11:21:56;;;;;;;9.53;8.33;;;;;;;27.52;50.77;99106.19;5114536;28;20425;-76
2021/07/27 11:24:23;;;;;;;10.93;8.30;;;;;;;27.94;49.90;99103.22;5113889;28;20937;-77
2021/07/27 11:26:53;;;;;;;9.00;8.10;;;;;;;27.83;49.85;99094.47;5114277;28;20923;-76
2021/07/27 11:29:20;;;;;;;9.43;8.53;;;;;;;27.90;49.95;99100.03;5115267;28;20444;-77
2021/07/27 11:31:48;;;;;;;9.80;8.57;;;;;;;27.92;50.17;99099.81;5115440;28;20915;-74
2021/07/27 11:34:29;;;;;;;9.67;8.77;;;;;;;27.80;50.38;99096.81;5115966;28;20520;-73
2021/07/27 11:36:57;;;;;;;10.40;9.40;;;;;;;27.77;49.95;99088.94;5115342;28;20471;-73
2021/07/27 11:39:23;;;;;;;13.83;9.77;;;;;;;27.97;49.63;99086.19;5115247;28;20445;-72
2021/07/27 11:42:04;;;;;;;15.43;8.40;;;;;;;28.27;48.94;99086.59;5115660;28;20443;-73
2021/07/27 11:44:31;;;;;;;8.83;7.80;;;;;;;28.48;48.48;99083.56;5115050;28;20505;-71
2021/07/27 11:46:58;;;;;;;10.20;8.67;;;;;;;28.72;46.63;99075.63;5115230;28;20871;-73
2021/07/27 11:49:27;;;;;;;10.37;8.33;;;;;;;28.92;45.63;99071.88;5112744;28;20476;-71
2021/07/27 11:52:05;;;;;;;8.93;7.77;;;;;;;29.08;45.97;99066.72;5114917;28;20437;-72
2021/07/27 11:54:32;;;;;;;9.07;8.20;;;;;;;28.80;45.52;99057.88;5114997;28;20498;-73
2021/07/27 11:57:01;;;;;;;11.90;10.70;;;;;;;28.81;44.90;99065.97;5115088;28;20501;-72